sensor_id;sensor_type;location;lat;lon;timestamp;temperature;humidity
19261;DHT22;9764;48.114;11.670;2023-03-29T00:00:08;20.60;81.40
19261;DHT22;9764;48.114;11.670;2023-03-29T00:02:41;20.60;81.50
19261;DHT22;9764;48.114;11.670;2023-03-29T00:05:09;20.60;81.50
19261;DHT22;9764;48.114;11.670;2023-03-29T00:07:39;20.60;81.50
19261;DHT22;9764;48.114;11.670;2023-03-29T00:10:10;20.60;81.50
19261;DHT22;9764;48.114;11.670;2023-03-29T00:12:39;20.60;81.80
19261;DHT22;9764;48.114;11.670;2023-03-29T00:15:10;20.60;81.50
19261;DHT22;9764;48.114;11.670;2023-03-29T00:17:38;20.60;81.50
19261;DHT22;9764;48.114;11.670;2023-03-29T00:20:08;20.60;81.50
19261;DHT22;9764;48.114;11.670;2023-03-29T00:22:38;20.60;81.50
19261;DHT22;9764;48.114;11.670;2023-03-29T00:25:08;20.60;81.60
19261;DHT22;9764;48.114;11.670;2023-03-29T00:27:38;20.60;81.60
19261;DHT22;9764;48.114;11.670;2023-03-29T00:30:08;20.60;81.60
19261;DHT22;9764;48.114;11.670;2023-03-29T00:32:38;20.60;81.60
19261;DHT22;9764;48.114;11.670;2023-03-29T00:35:07;20.60;81.60
19261;DHT22;9764;48.114;11.670;2023-03-29T00:37:36;20.60;81.50
19261;DHT22;9764;48.114;11.670;2023-03-29T00:40:07;20.60;81.50
19261;DHT22;9764;48.114;11.670;2023-03-29T00:42:37;20.60;81.50
19261;DHT22;9764;48.114;11.670;2023-03-29T00:45:16;20.50;81.50
19261;DHT22;9764;48.114;11.670;2023-03-29T00:47:48;20.60;81.60
19261;DHT22;9764;48.114;11.670;2023-03-29T00:50:20;20.50;81.60
19261;DHT22;9764;48.114;11.670;2023-03-29T00:52:55;20.60;81.60
19261;DHT22;9764;48.114;11.670;2023-03-29T00:55:26;20.50;81.50
19261;DHT22;9764;48.114;11.670;2023-03-29T00:57:55;20.50;81.60
19261;DHT22;9764;48.114;11.670;2023-03-29T01:00:28;20.60;81.70
19261;DHT22;9764;48.114;11.670;2023-03-29T01:03:04;20.50;81.60
19261;DHT22;9764;48.114;11.670;2023-03-29T01:05:37;20.60;81.60
19261;DHT22;9764;48.114;11.670;2023-03-29T01:08:10;20.50;81.60
19261;DHT22;9764;48.114;11.670;2023-03-29T01:10:48;20.50;81.60
19261;DHT22;9764;48.114;11.670;2023-03-29T01:13:22;20.50;82.40
19261;DHT22;9764;48.114;11.670;2023-03-29T01:15:55;20.50;82.50
19261;DHT22;9764;48.114;11.670;2023-03-29T01:18:28;20.50;81.60
19261;DHT22;9764;48.114;11.670;2023-03-29T01:21:06;20.50;81.60
19261;DHT22;9764;48.114;11.670;2023-03-29T01:23:51;20.50;81.60
19261;DHT22;9764;48.114;11.670;2023-03-29T01:26:32;20.50;81.60
19261;DHT22;9764;48.114;11.670;2023-03-29T01:29:07;20.50;81.60
19261;DHT22;9764;48.114;11.670;2023-03-29T01:31:40;20.50;81.60
19261;DHT22;9764;48.114;11.670;2023-03-29T01:34:13;20.50;82.40
19261;DHT22;9764;48.114;11.670;2023-03-29T01:36:48;20.50;82.50
19261;DHT22;9764;48.114;11.670;2023-03-29T01:39:17;20.50;81.70
19261;DHT22;9764;48.114;11.670;2023-03-29T01:41:55;20.50;81.70
19261;DHT22;9764;48.114;11.670;2023-03-29T01:44:32;20.50;81.70
19261;DHT22;9764;48.114;11.670;2023-03-29T01:47:07;20.50;81.60
19261;DHT22;9764;48.114;11.670;2023-03-29T01:49:40;20.50;81.60
19261;DHT22;9764;48.114;11.670;2023-03-29T01:52:13;20.50;81.70
19261;DHT22;9764;48.114;11.670;2023-03-29T01:54:50;20.50;81.70
19261;DHT22;9764;48.114;11.670;2023-03-29T01:57:20;20.50;81.70
19261;DHT22;9764;48.114;11.670;2023-03-29T01:59:53;20.50;81.70
19261;DHT22;9764;48.114;11.670;2023-03-29T02:02:24;20.50;81.80
19261;DHT22;9764;48.114;11.670;2023-03-29T02:04:55;20.50;81.70
19261;DHT22;9764;48.114;11.670;2023-03-29T02:07:27;20.40;81.60
19261;DHT22;9764;48.114;11.670;2023-03-29T02:09:56;20.40;81.60
19261;DHT22;9764;48.114;11.670;2023-03-29T02:12:25;20.50;81.70
19261;DHT22;9764;48.114;11.670;2023-03-29T02:14:56;20.40;81.60
19261;DHT22;9764;48.114;11.670;2023-03-29T02:17:26;20.50;82.00
19261;DHT22;9764;48.114;11.670;2023-03-29T02:19:58;20.40;81.70
19261;DHT22;9764;48.114;11.670;2023-03-29T02:22:35;20.50;81.80
19261;DHT22;9764;48.114;11.670;2023-03-29T02:25:07;20.50;81.80
19261;DHT22;9764;48.114;11.670;2023-03-29T02:27:37;20.50;81.80
19261;DHT22;9764;48.114;11.670;2023-03-29T02:30:09;20.40;81.60
19261;DHT22;9764;48.114;11.670;2023-03-29T02:32:45;20.50;81.80
19261;DHT22;9764;48.114;11.670;2023-03-29T02:35:20;20.40;81.70
19261;DHT22;9764;48.114;11.670;2023-03-29T02:37:52;20.40;81.60
19261;DHT22;9764;48.114;11.670;2023-03-29T02:40:22;20.40;81.80
19261;DHT22;9764;48.114;11.670;2023-03-29T02:42:53;20.40;81.70
19261;DHT22;9764;48.114;11.670;2023-03-29T02:45:24;20.40;81.70
19261;DHT22;9764;48.114;11.670;2023-03-29T02:47:56;20.40;81.70
19261;DHT22;9764;48.114;11.670;2023-03-29T02:50:34;20.40;81.70
19261;DHT22;9764;48.114;11.670;2023-03-29T02:53:08;20.40;82.60
19261;DHT22;9764;48.114;11.670;2023-03-29T02:55:39;20.40;81.80
19261;DHT22;9764;48.114;11.670;2023-03-29T02:58:07;20.40;81.70
19261;DHT22;9764;48.114;11.670;2023-03-29T03:00:42;20.40;81.70
19261;DHT22;9764;48.114;11.670;2023-03-29T03:03:11;20.40;81.80
19261;DHT22;9764;48.114;11.670;2023-03-29T03:05:43;20.40;82.60
19261;DHT22;9764;48.114;11.670;2023-03-29T03:08:11;20.40;81.80
19261;DHT22;9764;48.114;11.670;2023-03-29T03:10:40;20.40;81.80
19261;DHT22;9764;48.114;11.670;2023-03-29T03:13:08;20.40;81.70
19261;DHT22;9764;48.114;11.670;2023-03-29T03:15:38;20.40;81.90
19261;DHT22;9764;48.114;11.670;2023-03-29T03:18:08;20.40;81.80
19261;DHT22;9764;48.114;11.670;2023-03-29T03:20:38;20.40;81.70
19261;DHT22;9764;48.114;11.670;2023-03-29T03:23:07;20.40;81.80
19261;DHT22;9764;48.114;11.670;2023-03-29T03:25:36;20.40;81.80
19261;DHT22;9764;48.114;11.670;2023-03-29T03:28:05;20.40;81.80
19261;DHT22;9764;48.114;11.670;2023-03-29T03:30:33;20.40;81.80
19261;DHT22;9764;48.114;11.670;2023-03-29T03:33:32;20.40;81.80
19261;DHT22;9764;48.114;11.670;2023-03-29T03:36:20;20.40;81.80
19261;DHT22;9764;48.114;11.670;2023-03-29T03:38:54;20.40;81.80
19261;DHT22;9764;48.114;11.670;2023-03-29T03:41:23;20.40;81.80
19261;DHT22;9764;48.114;11.670;2023-03-29T03:43:52;20.40;81.90
19261;DHT22;9764;48.114;11.670;2023-03-29T03:46:21;20.40;81.90
19261;DHT22;9764;48.114;11.670;2023-03-29T03:48:51;20.40;81.80
19261;DHT22;9764;48.114;11.670;2023-03-29T03:51:28;20.40;81.80
19261;DHT22;9764;48.114;11.670;2023-03-29T03:53:57;20.40;81.80
19261;DHT22;9764;48.114;11.670;2023-03-29T03:56:34;20.40;81.80
19261;DHT22;9764;48.114;11.670;2023-03-29T03:59:03;20.40;81.80
19261;DHT22;9764;48.114;11.670;2023-03-29T04:02:11;20.40;81.90
19261;DHT22;9764;48.114;11.670;2023-03-29T04:04:41;20.30;81.80
19261;DHT22;9764;48.114;11.670;2023-03-29T04:07:13;20.30;81.80
19261;DHT22;9764;48.114;11.670;2023-03-29T04:10:16;20.40;81.80
19261;DHT22;9764;48.114;11.670;2023-03-29T04:12:51;20.30;81.80
19261;DHT22;9764;48.114;11.670;2023-03-29T04:15:20;20.40;81.90
19261;DHT22;9764;48.114;11.670;2023-03-29T04:17:59;20.40;81.90
19261;DHT22;9764;48.114;11.670;2023-03-29T04:20:42;20.40;81.90
19261;DHT22;9764;48.114;11.670;2023-03-29T04:23:12;20.40;81.90
19261;DHT22;9764;48.114;11.670;2023-03-29T04:25:43;20.40;81.90
19261;DHT22;9764;48.114;11.670;2023-03-29T04:28:11;20.40;82.00
19261;DHT22;9764;48.114;11.670;2023-03-29T04:30:47;20.40;81.80
19261;DHT22;9764;48.114;11.670;2023-03-29T04:33:35;20.40;81.90
19261;DHT22;9764;48.114;11.670;2023-03-29T04:36:06;20.40;82.70
19261;DHT22;9764;48.114;11.670;2023-03-29T04:38:35;20.40;81.80
19261;DHT22;9764;48.114;11.670;2023-03-29T04:41:04;20.40;81.90
19261;DHT22;9764;48.114;11.670;2023-03-29T04:43:50;20.40;81.90
19261;DHT22;9764;48.114;11.670;2023-03-29T04:46:22;20.40;81.80
19261;DHT22;9764;48.114;11.670;2023-03-29T04:49:11;20.40;81.90
19261;DHT22;9764;48.114;11.670;2023-03-29T04:51:45;20.40;81.80
19261;DHT22;9764;48.114;11.670;2023-03-29T04:54:16;20.40;82.00
19261;DHT22;9764;48.114;11.670;2023-03-29T04:57:06;20.40;82.00
19261;DHT22;9764;48.114;11.670;2023-03-29T04:59:58;20.40;81.90
19261;DHT22;9764;48.114;11.670;2023-03-29T05:02:45;20.40;82.00
19261;DHT22;9764;48.114;11.670;2023-03-29T05:05:14;20.40;82.00
19261;DHT22;9764;48.114;11.670;2023-03-29T05:07:46;20.40;82.00
19261;DHT22;9764;48.114;11.670;2023-03-29T05:10:17;20.40;82.00
19261;DHT22;9764;48.114;11.670;2023-03-29T05:12:45;20.40;81.90
19261;DHT22;9764;48.114;11.670;2023-03-29T05:15:16;20.40;81.90
19261;DHT22;9764;48.114;11.670;2023-03-29T05:17:45;20.40;82.00
19261;DHT22;9764;48.114;11.670;2023-03-29T05:20:15;20.40;81.80
19261;DHT22;9764;48.114;11.670;2023-03-29T05:22:47;20.40;82.00
19261;DHT22;9764;48.114;11.670;2023-03-29T05:25:53;20.40;81.90
19261;DHT22;9764;48.114;11.670;2023-03-29T05:28:22;20.40;81.90
19261;DHT22;9764;48.114;11.670;2023-03-29T05:30:58;20.40;81.90
19261;DHT22;9764;48.114;11.670;2023-03-29T05:33:28;20.40;81.80
19261;DHT22;9764;48.114;11.670;2023-03-29T05:35:58;20.40;82.00
19261;DHT22;9764;48.114;11.670;2023-03-29T05:38:28;20.40;81.90
19261;DHT22;9764;48.114;11.670;2023-03-29T05:40:59;20.40;81.80
19261;DHT22;9764;48.114;11.670;2023-03-29T05:43:28;20.40;82.70
19261;DHT22;9764;48.114;11.670;2023-03-29T05:45:57;20.40;81.80
19261;DHT22;9764;48.114;11.670;2023-03-29T05:48:28;20.40;81.90
19261;DHT22;9764;48.114;11.670;2023-03-29T05:50:57;20.40;81.80
19261;DHT22;9764;48.114;11.670;2023-03-29T05:53:27;20.40;81.80
19261;DHT22;9764;48.114;11.670;2023-03-29T05:55:56;20.40;81.80
19261;DHT22;9764;48.114;11.670;2023-03-29T05:58:27;20.40;81.80
19261;DHT22;9764;48.114;11.670;2023-03-29T06:00:57;20.40;81.70
19261;DHT22;9764;48.114;11.670;2023-03-29T06:03:46;20.50;81.80
19261;DHT22;9764;48.114;11.670;2023-03-29T06:06:19;20.50;82.70
19261;DHT22;9764;48.114;11.670;2023-03-29T06:08:49;20.50;81.90
19261;DHT22;9764;48.114;11.670;2023-03-29T06:11:32;20.50;81.90
19261;DHT22;9764;48.114;11.670;2023-03-29T06:14:19;20.50;81.90
19261;DHT22;9764;48.114;11.670;2023-03-29T06:16:55;20.50;81.80
19261;DHT22;9764;48.114;11.670;2023-03-29T06:19:23;20.50;81.90
19261;DHT22;9764;48.114;11.670;2023-03-29T06:21:53;20.50;81.80
19261;DHT22;9764;48.114;11.670;2023-03-29T06:24:27;20.50;81.80
19261;DHT22;9764;48.114;11.670;2023-03-29T06:27:02;20.50;81.80
19261;DHT22;9764;48.114;11.670;2023-03-29T06:29:30;20.50;81.90
19261;DHT22;9764;48.114;11.670;2023-03-29T06:31:59;20.60;82.50
19261;DHT22;9764;48.114;11.670;2023-03-29T06:34:44;20.60;82.60
19261;DHT22;9764;48.114;11.670;2023-03-29T06:37:39;20.60;82.40
19261;DHT22;9764;48.114;11.670;2023-03-29T06:40:22;20.60;82.40
19261;DHT22;9764;48.114;11.670;2023-03-29T06:42:50;20.60;82.50
19261;DHT22;9764;48.114;11.670;2023-03-29T06:45:44;20.60;82.60
19261;DHT22;9764;48.114;11.670;2023-03-29T06:48:33;20.60;82.70
19261;DHT22;9764;48.114;11.670;2023-03-29T06:51:01;20.70;82.70
19261;DHT22;9764;48.114;11.670;2023-03-29T06:53:30;20.70;83.00
19261;DHT22;9764;48.114;11.670;2023-03-29T06:56:02;20.70;83.20
19261;DHT22;9764;48.114;11.670;2023-03-29T06:58:42;20.80;83.40
19261;DHT22;9764;48.114;11.670;2023-03-29T07:01:33;20.80;83.10
19261;DHT22;9764;48.114;11.670;2023-03-29T07:04:07;20.90;83.00
19261;DHT22;9764;48.114;11.670;2023-03-29T07:07:01;20.90;82.90
19261;DHT22;9764;48.114;11.670;2023-03-29T07:09:34;20.90;83.00
19261;DHT22;9764;48.114;11.670;2023-03-29T07:12:23;20.90;83.00
19261;DHT22;9764;48.114;11.670;2023-03-29T07:14:57;21.00;83.20
19261;DHT22;9764;48.114;11.670;2023-03-29T07:17:45;21.00;83.10
19261;DHT22;9764;48.114;11.670;2023-03-29T07:20:14;21.00;83.10
19261;DHT22;9764;48.114;11.670;2023-03-29T07:22:48;21.00;83.10
19261;DHT22;9764;48.114;11.670;2023-03-29T07:25:20;21.10;84.00
19261;DHT22;9764;48.114;11.670;2023-03-29T07:27:50;21.10;83.20
19261;DHT22;9764;48.114;11.670;2023-03-29T07:30:21;21.10;83.10
19261;DHT22;9764;48.114;11.670;2023-03-29T07:32:50;21.10;83.20
19261;DHT22;9764;48.114;11.670;2023-03-29T07:35:27;21.10;83.20
19261;DHT22;9764;48.114;11.670;2023-03-29T07:37:57;21.20;83.40
19261;DHT22;9764;48.114;11.670;2023-03-29T07:40:26;21.20;83.40
19261;DHT22;9764;48.114;11.670;2023-03-29T07:42:57;21.20;83.30
19261;DHT22;9764;48.114;11.670;2023-03-29T07:45:29;21.20;83.30
19261;DHT22;9764;48.114;11.670;2023-03-29T07:48:08;21.20;83.30
19261;DHT22;9764;48.114;11.670;2023-03-29T07:50:48;21.20;83.40
19261;DHT22;9764;48.114;11.670;2023-03-29T07:53:20;21.30;83.40
19261;DHT22;9764;48.114;11.670;2023-03-29T07:55:51;21.20;83.40
19261;DHT22;9764;48.114;11.670;2023-03-29T07:58:44;21.20;83.40
19261;DHT22;9764;48.114;11.670;2023-03-29T08:01:14;21.30;83.50
19261;DHT22;9764;48.114;11.670;2023-03-29T08:04:04;21.30;83.70
19261;DHT22;9764;48.114;11.670;2023-03-29T08:06:53;21.30;83.60
19261;DHT22;9764;48.114;11.670;2023-03-29T08:09:28;21.30;84.00
19261;DHT22;9764;48.114;11.670;2023-03-29T08:11:56;21.30;84.10
19261;DHT22;9764;48.114;11.670;2023-03-29T08:14:33;21.40;84.00
19261;DHT22;9764;48.114;11.670;2023-03-29T08:17:12;21.40;84.20
19261;DHT22;9764;48.114;11.670;2023-03-29T08:19:46;21.40;84.40
19261;DHT22;9764;48.114;11.670;2023-03-29T08:22:23;21.40;84.30
19261;DHT22;9764;48.114;11.670;2023-03-29T08:25:08;21.50;84.50
19261;DHT22;9764;48.114;11.670;2023-03-29T08:27:41;21.50;84.60
19261;DHT22;9764;48.114;11.670;2023-03-29T08:30:14;21.50;84.60
19261;DHT22;9764;48.114;11.670;2023-03-29T08:32:43;21.50;84.80
19261;DHT22;9764;48.114;11.670;2023-03-29T08:35:17;21.50;85.00
19261;DHT22;9764;48.114;11.670;2023-03-29T08:38:03;21.50;85.00
19261;DHT22;9764;48.114;11.670;2023-03-29T08:40:32;21.50;84.90
19261;DHT22;9764;48.114;11.670;2023-03-29T08:43:21;21.60;85.10
19261;DHT22;9764;48.114;11.670;2023-03-29T08:46:21;21.60;85.30
19261;DHT22;9764;48.114;11.670;2023-03-29T08:49:11;21.60;85.50
19261;DHT22;9764;48.114;11.670;2023-03-29T08:51:44;21.60;85.70
19261;DHT22;9764;48.114;11.670;2023-03-29T08:54:14;21.60;85.60
19261;DHT22;9764;48.114;11.670;2023-03-29T08:57:21;21.70;86.60
19261;DHT22;9764;48.114;11.670;2023-03-29T08:59:59;21.70;86.60
19261;DHT22;9764;48.114;11.670;2023-03-29T09:02:33;21.70;85.80
19261;DHT22;9764;48.114;11.670;2023-03-29T09:05:13;21.80;85.80
19261;DHT22;9764;48.114;11.670;2023-03-29T09:07:55;21.70;85.70
19261;DHT22;9764;48.114;11.670;2023-03-29T09:10:31;21.80;85.60
19261;DHT22;9764;48.114;11.670;2023-03-29T09:13:13;21.80;85.40
19261;DHT22;9764;48.114;11.670;2023-03-29T09:15:50;21.80;85.50
19261;DHT22;9764;48.114;11.670;2023-03-29T09:18:36;21.80;85.40
19261;DHT22;9764;48.114;11.670;2023-03-29T09:21:15;21.80;85.40
19261;DHT22;9764;48.114;11.670;2023-03-29T09:23:58;21.80;85.40
19261;DHT22;9764;48.114;11.670;2023-03-29T09:26:40;21.90;85.50
19261;DHT22;9764;48.114;11.670;2023-03-29T09:29:39;21.90;85.50
19261;DHT22;9764;48.114;11.670;2023-03-29T09:32:18;21.90;85.20
19261;DHT22;9764;48.114;11.670;2023-03-29T09:35:00;22.00;84.90
19261;DHT22;9764;48.114;11.670;2023-03-29T09:37:32;22.00;84.80
19261;DHT22;9764;48.114;11.670;2023-03-29T09:40:05;22.00;84.70
19261;DHT22;9764;48.114;11.670;2023-03-29T09:42:51;22.10;85.00
19261;DHT22;9764;48.114;11.670;2023-03-29T09:45:22;22.10;85.30
19261;DHT22;9764;48.114;11.670;2023-03-29T09:47:55;22.10;85.30
19261;DHT22;9764;48.114;11.670;2023-03-29T09:50:32;22.20;85.40
19261;DHT22;9764;48.114;11.670;2023-03-29T09:53:06;22.20;85.40
19261;DHT22;9764;48.114;11.670;2023-03-29T09:55:38;22.20;85.40
19261;DHT22;9764;48.114;11.670;2023-03-29T09:58:16;22.20;85.50
19261;DHT22;9764;48.114;11.670;2023-03-29T10:00:50;22.30;85.50
19261;DHT22;9764;48.114;11.670;2023-03-29T10:03:23;22.30;85.40
19261;DHT22;9764;48.114;11.670;2023-03-29T10:06:25;22.30;85.40
19261;DHT22;9764;48.114;11.670;2023-03-29T10:09:00;22.30;85.40
19261;DHT22;9764;48.114;11.670;2023-03-29T10:11:34;22.40;85.40
19261;DHT22;9764;48.114;11.670;2023-03-29T10:14:10;22.40;83.60
19261;DHT22;9764;48.114;11.670;2023-03-29T10:16:40;22.40;83.50
19261;DHT22;9764;48.114;11.670;2023-03-29T10:19:17;22.40;83.40
19261;DHT22;9764;48.114;11.670;2023-03-29T10:21:48;22.40;83.60
19261;DHT22;9764;48.114;11.670;2023-03-29T10:24:19;22.40;83.70
19261;DHT22;9764;48.114;11.670;2023-03-29T10:26:50;22.40;83.60
19261;DHT22;9764;48.114;11.670;2023-03-29T10:29:22;22.40;84.50
19261;DHT22;9764;48.114;11.670;2023-03-29T10:31:51;22.40;83.70
19261;DHT22;9764;48.114;11.670;2023-03-29T10:34:21;22.50;83.80
19261;DHT22;9764;48.114;11.670;2023-03-29T10:36:57;22.50;83.90
19261;DHT22;9764;48.114;11.670;2023-03-29T10:39:31;22.50;83.90
19261;DHT22;9764;48.114;11.670;2023-03-29T10:42:02;22.50;84.00
19261;DHT22;9764;48.114;11.670;2023-03-29T10:44:33;22.50;84.00
19261;DHT22;9764;48.114;11.670;2023-03-29T10:47:11;22.50;84.90
19261;DHT22;9764;48.114;11.670;2023-03-29T10:49:44;22.50;84.20
19261;DHT22;9764;48.114;11.670;2023-03-29T10:52:15;22.50;84.10
19261;DHT22;9764;48.114;11.670;2023-03-29T10:54:44;22.60;84.10
19261;DHT22;9764;48.114;11.670;2023-03-29T10:57:16;22.50;84.70
19261;DHT22;9764;48.114;11.670;2023-03-29T10:59:53;22.60;83.90
19261;DHT22;9764;48.114;11.670;2023-03-29T11:05:28;22.60;83.40
19261;DHT22;9764;48.114;11.670;2023-03-29T11:08:11;22.60;83.30
19261;DHT22;9764;48.114;11.670;2023-03-29T11:10:54;22.60;83.10
19261;DHT22;9764;48.114;11.670;2023-03-29T11:13:32;22.60;83.10
19261;DHT22;9764;48.114;11.670;2023-03-29T11:16:12;22.60;83.10
19261;DHT22;9764;48.114;11.670;2023-03-29T11:19:00;22.60;83.00
19261;DHT22;9764;48.114;11.670;2023-03-29T11:21:37;22.60;83.00
19261;DHT22;9764;48.114;11.670;2023-03-29T11:24:24;22.60;82.90
19261;DHT22;9764;48.114;11.670;2023-03-29T11:27:03;22.60;83.00
19261;DHT22;9764;48.114;11.670;2023-03-29T11:29:45;22.50;82.90
19261;DHT22;9764;48.114;11.670;2023-03-29T11:32:19;22.60;83.00
19261;DHT22;9764;48.114;11.670;2023-03-29T11:35:00;22.60;83.00
19261;DHT22;9764;48.114;11.670;2023-03-29T11:37:34;22.60;83.00
19261;DHT22;9764;48.114;11.670;2023-03-29T11:40:21;22.50;82.90
19261;DHT22;9764;48.114;11.670;2023-03-29T11:42:57;22.50;82.90
19261;DHT22;9764;48.114;11.670;2023-03-29T11:45:32;22.50;82.90
19261;DHT22;9764;48.114;11.670;2023-03-29T11:48:05;22.50;83.10
19261;DHT22;9764;48.114;11.670;2023-03-29T11:50:37;22.50;83.20
19261;DHT22;9764;48.114;11.670;2023-03-29T11:53:12;22.50;83.40
19261;DHT22;9764;48.114;11.670;2023-03-29T11:55:44;22.50;83.70
19261;DHT22;9764;48.114;11.670;2023-03-29T11:58:17;22.50;83.70
19261;DHT22;9764;48.114;11.670;2023-03-29T12:00:51;22.50;83.70
19261;DHT22;9764;48.114;11.670;2023-03-29T12:03:31;22.60;83.90
19261;DHT22;9764;48.114;11.670;2023-03-29T12:06:07;22.60;84.70
19261;DHT22;9764;48.114;11.670;2023-03-29T12:08:43;22.60;84.00
19261;DHT22;9764;48.114;11.670;2023-03-29T12:11:19;22.60;84.10
19261;DHT22;9764;48.114;11.670;2023-03-29T12:13:52;22.60;84.20
19261;DHT22;9764;48.114;11.670;2023-03-29T12:16:25;22.60;84.50
19261;DHT22;9764;48.114;11.670;2023-03-29T12:18:57;22.60;84.50
19261;DHT22;9764;48.114;11.670;2023-03-29T12:21:28;22.60;84.50
19261;DHT22;9764;48.114;11.670;2023-03-29T12:23:57;22.60;84.60
19261;DHT22;9764;48.114;11.670;2023-03-29T12:26:45;22.60;84.70
19261;DHT22;9764;48.114;11.670;2023-03-29T12:29:32;22.60;84.80
19261;DHT22;9764;48.114;11.670;2023-03-29T12:32:14;22.60;85.00
19261;DHT22;9764;48.114;11.670;2023-03-29T12:35:05;22.60;84.80
19261;DHT22;9764;48.114;11.670;2023-03-29T12:38:05;22.70;84.90
19261;DHT22;9764;48.114;11.670;2023-03-29T12:40:55;22.70;85.10
19261;DHT22;9764;48.114;11.670;2023-03-29T12:44:00;22.70;85.20
19261;DHT22;9764;48.114;11.670;2023-03-29T12:46:53;22.70;85.30
19261;DHT22;9764;48.114;11.670;2023-03-29T12:49:28;22.70;85.60
19261;DHT22;9764;48.114;11.670;2023-03-29T12:51:59;22.70;85.30
19261;DHT22;9764;48.114;11.670;2023-03-29T12:54:31;22.70;85.30
19261;DHT22;9764;48.114;11.670;2023-03-29T12:57:01;22.70;85.40
19261;DHT22;9764;48.114;11.670;2023-03-29T12:59:47;22.80;85.50
19261;DHT22;9764;48.114;11.670;2023-03-29T13:02:34;22.80;85.40
19261;DHT22;9764;48.114;11.670;2023-03-29T13:05:32;22.80;85.40
19261;DHT22;9764;48.114;11.670;2023-03-29T13:08:18;22.80;85.40
19261;DHT22;9764;48.114;11.670;2023-03-29T13:10:52;22.90;85.60
19261;DHT22;9764;48.114;11.670;2023-03-29T13:13:25;22.90;85.40
19261;DHT22;9764;48.114;11.670;2023-03-29T13:16:13;22.90;85.50
19261;DHT22;9764;48.114;11.670;2023-03-29T13:18:52;22.90;85.40
19261;DHT22;9764;48.114;11.670;2023-03-29T13:21:31;22.90;85.60
19261;DHT22;9764;48.114;11.670;2023-03-29T13:24:05;22.90;85.40
19261;DHT22;9764;48.114;11.670;2023-03-29T13:26:49;22.90;85.50
19261;DHT22;9764;48.114;11.670;2023-03-29T13:29:34;22.90;85.10
19261;DHT22;9764;48.114;11.670;2023-03-29T13:32:18;23.00;85.20
19261;DHT22;9764;48.114;11.670;2023-03-29T13:34:55;23.00;85.20
19261;DHT22;9764;48.114;11.670;2023-03-29T13:37:33;23.00;85.90
19261;DHT22;9764;48.114;11.670;2023-03-29T13:40:26;23.00;86.00
19261;DHT22;9764;48.114;11.670;2023-03-29T13:42:57;23.00;85.80
19261;DHT22;9764;48.114;11.670;2023-03-29T13:45:30;23.00;85.60
19261;DHT22;9764;48.114;11.670;2023-03-29T13:48:04;23.00;85.60
19261;DHT22;9764;48.114;11.670;2023-03-29T13:50:52;23.00;86.30
19261;DHT22;9764;48.114;11.670;2023-03-29T13:53:27;23.00;86.20
19261;DHT22;9764;48.114;11.670;2023-03-29T13:55:57;23.00;86.10
19261;DHT22;9764;48.114;11.670;2023-03-29T13:58:31;23.00;86.20
19261;DHT22;9764;48.114;11.670;2023-03-29T14:01:09;23.00;86.30
19261;DHT22;9764;48.114;11.670;2023-03-29T14:03:42;23.00;86.20
19261;DHT22;9764;48.114;11.670;2023-03-29T14:06:14;23.00;86.10
19261;DHT22;9764;48.114;11.670;2023-03-29T14:08:44;23.00;86.10
19261;DHT22;9764;48.114;11.670;2023-03-29T14:11:20;23.00;86.20
19261;DHT22;9764;48.114;11.670;2023-03-29T14:13:54;23.00;86.20
19261;DHT22;9764;48.114;11.670;2023-03-29T14:16:26;23.00;86.10
19261;DHT22;9764;48.114;11.670;2023-03-29T14:18:59;23.10;86.40
19261;DHT22;9764;48.114;11.670;2023-03-29T14:21:29;23.10;86.50
19261;DHT22;9764;48.114;11.670;2023-03-29T14:24:00;23.10;86.70
19261;DHT22;9764;48.114;11.670;2023-03-29T14:26:30;23.10;86.60
19261;DHT22;9764;48.114;11.670;2023-03-29T14:29:00;23.10;86.50
19261;DHT22;9764;48.114;11.670;2023-03-29T14:31:30;23.20;86.60
19261;DHT22;9764;48.114;11.670;2023-03-29T14:34:02;23.20;87.40
19261;DHT22;9764;48.114;11.670;2023-03-29T14:36:31;23.20;86.60
19261;DHT22;9764;48.114;11.670;2023-03-29T14:39:03;23.20;86.50
19261;DHT22;9764;48.114;11.670;2023-03-29T14:41:34;23.20;86.90
19261;DHT22;9764;48.114;11.670;2023-03-29T14:44:04;23.20;86.50
19261;DHT22;9764;48.114;11.670;2023-03-29T14:46:34;23.20;86.20
19261;DHT22;9764;48.114;11.670;2023-03-29T14:49:04;23.20;85.00
19261;DHT22;9764;48.114;11.670;2023-03-29T14:51:33;23.20;84.20
19261;DHT22;9764;48.114;11.670;2023-03-29T14:54:03;23.10;83.90
19261;DHT22;9764;48.114;11.670;2023-03-29T14:56:32;23.10;84.80
19261;DHT22;9764;48.114;11.670;2023-03-29T14:59:02;23.00;84.90
19261;DHT22;9764;48.114;11.670;2023-03-29T15:01:31;23.00;84.70
19261;DHT22;9764;48.114;11.670;2023-03-29T15:04:03;23.00;84.40
19261;DHT22;9764;48.114;11.670;2023-03-29T15:06:37;23.00;84.30
19261;DHT22;9764;48.114;11.670;2023-03-29T15:09:06;22.90;84.30
19261;DHT22;9764;48.114;11.670;2023-03-29T15:11:36;22.90;83.90
19261;DHT22;9764;48.114;11.670;2023-03-29T15:14:07;22.80;84.10
19261;DHT22;9764;48.114;11.670;2023-03-29T15:16:38;22.80;83.90
19261;DHT22;9764;48.114;11.670;2023-03-29T15:19:12;22.80;84.00
19261;DHT22;9764;48.114;11.670;2023-03-29T15:21:46;22.80;83.90
19261;DHT22;9764;48.114;11.670;2023-03-29T15:24:21;22.80;83.90
19261;DHT22;9764;48.114;11.670;2023-03-29T15:27:00;22.80;83.90
19261;DHT22;9764;48.114;11.670;2023-03-29T15:29:34;22.70;83.80
19261;DHT22;9764;48.114;11.670;2023-03-29T15:32:03;22.70;83.80
19261;DHT22;9764;48.114;11.670;2023-03-29T15:34:32;22.70;83.70
19261;DHT22;9764;48.114;11.670;2023-03-29T15:37:02;22.70;83.60
19261;DHT22;9764;48.114;11.670;2023-03-29T15:39:31;22.60;83.70
19261;DHT22;9764;48.114;11.670;2023-03-29T15:42:00;22.60;83.80
19261;DHT22;9764;48.114;11.670;2023-03-29T15:44:32;22.60;83.90
19261;DHT22;9764;48.114;11.670;2023-03-29T15:47:02;22.60;83.80
19261;DHT22;9764;48.114;11.670;2023-03-29T15:49:30;22.60;83.80
19261;DHT22;9764;48.114;11.670;2023-03-29T15:51:59;22.60;83.80
19261;DHT22;9764;48.114;11.670;2023-03-29T15:54:29;22.60;83.60
19261;DHT22;9764;48.114;11.670;2023-03-29T15:57:02;22.50;83.50
19261;DHT22;9764;48.114;11.670;2023-03-29T15:59:33;22.50;84.10
19261;DHT22;9764;48.114;11.670;2023-03-29T16:02:03;22.50;83.50
19261;DHT22;9764;48.114;11.670;2023-03-29T16:04:31;22.50;83.70
19261;DHT22;9764;48.114;11.670;2023-03-29T16:07:00;22.50;83.70
19261;DHT22;9764;48.114;11.670;2023-03-29T16:09:29;22.50;83.70
19261;DHT22;9764;48.114;11.670;2023-03-29T16:11:58;22.50;83.70
19261;DHT22;9764;48.114;11.670;2023-03-29T16:14:28;22.40;83.60
19261;DHT22;9764;48.114;11.670;2023-03-29T16:16:58;22.40;83.60
19261;DHT22;9764;48.114;11.670;2023-03-29T16:19:30;22.40;83.70
19261;DHT22;9764;48.114;11.670;2023-03-29T16:21:59;22.40;83.60